Time;durP1;ratioP1;P1;durP2;ratioP2;P2;SDS_P1;SDS_P2;PMS_P1;PMS_P2;Temp;Humidity;BMP_temperature;BMP_pressure;BME280_temperature;BME280_humidity;BME280_pressure;Samples;Min_cycle;Max_cycle;Signal;HPM_P1;HPM_P2
2021/12/18 00:00:31;;;;;;;57.90;26.92;;;2.60;99.90;;;;;;1051656;27;20048;-76
2021/12/18 00:01:05;;;;;;;58.53;28.92;;;2.60;99.90;;;;;;1060280;27;20040;-79
2021/12/18 00:01:37;;;;;;;55.80;27.63;;;2.60;99.90;;;;;;1058092;27;20768;-78
2021/12/18 00:02:10;;;;;;;63.20;28.02;;;2.60;99.90;;;;;;1055782;28;20113;-79
2021/12/18 00:02:42;;;;;;;55.35;26.65;;;2.50;99.90;;;;;;1055267;28;20048;-78
2021/12/18 00:03:14;;;;;;;60.65;27.58;;;2.50;99.90;;;;;;1049453;28;20083;-78
2021/12/18 00:03:46;;;;;;;56.15;28.08;;;2.50;99.90;;;;;;1056390;28;20055;-80
2021/12/18 00:04:18;;;;;;;61.45;28.25;;;2.50;99.90;;;;;;1058224;28;20507;-78
2021/12/18 00:04:50;;;;;;;63.97;28.63;;;2.40;99.90;;;;;;1055519;28;20109;-78
2021/12/18 00:05:22;;;;;;;58.05;25.77;;;2.40;99.90;;;;;;1055742;28;20596;-78
2021/12/18 00:05:54;;;;;;;58.53;27.27;;;2.40;99.90;;;;;;1051697;28;20040;-79
2021/12/18 00:06:27;;;;;;;59.53;27.40;;;2.40;99.90;;;;;;1055216;28;20048;-78
2021/12/18 00:06:59;;;;;;;59.90;27.10;;;2.40;99.90;;;;;;1055598;28;20048;-80
2021/12/18 00:07:31;;;;;;;63.80;28.40;;;2.30;99.90;;;;;;1051524;28;20135;-78
2021/12/18 00:08:04;;;;;;;61.05;28.20;;;2.30;99.90;;;;;;1051360;28;20048;-79
2021/12/18 00:08:36;;;;;;;64.80;28.48;;;2.30;99.90;;;;;;1048141;28;20127;-78
2021/12/18 00:09:08;;;;;;;63.72;29.15;;;2.30;99.90;;;;;;1048180;28;20048;-78
2021/12/18 00:09:41;;;;;;;59.72;27.02;;;2.30;99.90;;;;;;1048213;28;20064;-78
2021/12/18 00:10:13;;;;;;;67.07;27.80;;;2.30;99.90;;;;;;1048180;28;20489;-78
2021/12/18 00:10:45;;;;;;;61.80;27.15;;;2.30;99.90;;;;;;1052133;28;20504;-79
2021/12/18 00:11:17;;;;;;;65.63;30.15;;;2.30;99.90;;;;;;1052179;28;20048;-78
2021/12/18 00:11:50;;;;;;;64.00;28.58;;;2.30;99.90;;;;;;1056271;27;20040;-78
2021/12/18 00:12:22;;;;;;;62.78;26.80;;;2.30;99.90;;;;;;1059116;28;20058;-82
2021/12/18 00:12:54;;;;;;;69.15;29.45;;;2.30;99.90;;;;;;1049398;28;20044;-80
2021/12/18 00:13:27;;;;;;;67.07;27.88;;;2.30;99.90;;;;;;1048925;28;20590;-79
2021/12/18 00:13:59;;;;;;;72.55;30.33;;;2.30;99.90;;;;;;1045326;28;20122;-78
2021/12/18 00:14:31;;;;;;;66.32;29.38;;;2.30;99.90;;;;;;1049413;28;20448;-79
2021/12/18 00:15:03;;;;;;;67.18;28.88;;;2.30;99.90;;;;;;1049231;28;20055;-80
2021/12/18 00:15:35;;;;;;;66.68;29.60;;;2.30;99.90;;;;;;1053488;28;20050;-78
2021/12/18 00:16:08;;;;;;;66.13;27.33;;;2.30;99.90;;;;;;1057716;27;20099;-81
2021/12/18 00:16:40;;;;;;;61.90;26.48;;;2.30;99.90;;;;;;1057110;28;20137;-80
2021/12/18 00:17:11;;;;;;;62.67;28.73;;;2.30;99.90;;;;;;1057271;28;20556;-78
2021/12/18 00:17:44;;;;;;;64.10;28.58;;;2.30;99.90;;;;;;1053500;28;20048;-78
2021/12/18 00:18:16;;;;;;;58.15;26.88;;;2.30;99.90;;;;;;1053399;28;20522;-80
2021/12/18 00:18:51;;;;;;;62.42;27.17;;;2.20;99.90;;;;;;1050012;28;20066;-79
2021/12/18 00:19:26;;;;;;;65.47;27.63;;;2.20;99.90;;;;;;1053947;28;20044;-78
2021/12/18 00:19:58;;;;;;;64.35;28.48;;;2.20;99.90;;;;;;1052908;28;20079;-81
2021/12/18 00:20:30;;;;;;;57.80;27.17;;;2.20;99.90;;;;;;1053754;28;20036;-77
2021/12/18 00:21:04;;;;;;;58.97;27.15;;;2.10;99.90;;;;;;1058137;27;20051;-78
2021/12/18 00:21:36;;;;;;;64.03;28.75;;;2.10;99.90;;;;;;1055261;27;20050;-78
2021/12/18 00:22:08;;;;;;;69.80;28.38;;;2.10;99.90;;;;;;1057085;28;20048;-78
2021/12/18 00:22:41;;;;;;;62.22;29.02;;;2.10;99.90;;;;;;1052540;28;20048;-79
2021/12/18 00:23:13;;;;;;;64.78;28.13;;;2.00;99.90;;;;;;1053459;28;20119;-78
2021/12/18 00:23:46;;;;;;;66.13;29.27;;;2.00;99.90;;;;;;1052909;28;20062;-78
2021/12/18 00:24:19;;;;;;;66.68;27.52;;;2.00;99.90;;;;;;1049256;28;20040;-80
2021/12/18 00:24:51;;;;;;;66.30;26.85;;;2.00;99.90;;;;;;1048293;28;20047;-79
2021/12/18 00:25:23;;;;;;;64.78;27.63;;;2.00;99.90;;;;;;1049585;28;20049;-79
2021/12/18 00:25:55;;;;;;;64.45;28.10;;;2.00;99.90;;;;;;1053278;28;20048;-81
2021/12/18 00:26:27;;;;;;;67.35;28.27;;;2.00;99.90;;;;;;1057663;27;20602;-79
2021/12/18 00:26:59;;;;;;;69.97;29.63;;;2.00;99.90;;;;;;1056714;28;20549;-79
2021/12/18 00:27:31;;;;;;;66.55;28.35;;;2.00;99.90;;;;;;1056060;28;20066;-76
2021/12/18 00:28:03;;;;;;;67.97;27.77;;;2.00;99.90;;;;;;1052860;28;20633;-78
2021/12/18 00:28:35;;;;;;;64.38;29.25;;;2.00;99.90;;;;;;1045575;28;20044;-76
2021/12/18 00:29:07;;;;;;;65.90;27.73;;;2.00;99.90;;;;;;1045071;28;20063;-79
2021/12/18 00:29:39;;;;;;;63.15;27.25;;;1.90;99.90;;;;;;1049538;28;20499;-78
2021/12/18 00:30:12;;;;;;;71.97;28.23;;;1.90;99.90;;;;;;1053162;28;20135;-78
2021/12/18 00:30:44;;;;;;;63.53;28.75;;;1.90;99.90;;;;;;1054234;28;20044;-80
2021/12/18 00:31:16;;;;;;;68.85;28.40;;;1.90;99.90;;;;;;1057583;27;20075;-78
2021/12/18 00:31:48;;;;;;;61.08;26.63;;;1.90;99.90;;;;;;1061016;27;20050;-78
2021/12/18 00:32:20;;;;;;;74.15;28.92;;;1.90;99.90;;;;;;1054656;28;20066;-77
2021/12/18 00:32:53;;;;;;;70.63;28.48;;;1.90;99.90;;;;;;1053525;28;20044;-80
2021/12/18 00:33:25;;;;;;;66.57;29.20;;;1.90;99.90;;;;;;1052539;28;20110;-78
2021/12/18 00:33:57;;;;;;;65.72;29.30;;;1.90;99.90;;;;;;1047536;28;23180;-78
2021/12/18 00:34:29;;;;;;;64.47;28.05;;;1.90;99.90;;;;;;1050575;28;20078;-81
2021/12/18 00:35:02;;;;;;;69.72;30.00;;;1.90;99.90;;;;;;1055196;28;20062;-79
2021/12/18 00:35:35;;;;;;;66.65;29.25;;;1.90;99.90;;;;;;1056949;28;20070;-78
2021/12/18 00:36:07;;;;;;;78.47;30.55;;;1.90;99.90;;;;;;1057403;27;20816;-79
2021/12/18 00:36:39;;;;;;;74.63;29.10;;;1.90;99.90;;;;;;1056760;28;20690;-77
2021/12/18 00:37:11;;;;;;;68.97;28.77;;;1.90;99.90;;;;;;1052821;28;20066;-81
2021/12/18 00:37:42;;;;;;;68.55;28.17;;;1.90;99.90;;;;;;1046220;28;20078;-78
2021/12/18 00:38:14;;;;;;;71.82;29.25;;;1.90;99.90;;;;;;1049563;28;20603;-80
2021/12/18 00:38:46;;;;;;;69.18;28.45;;;1.80;99.90;;;;;;1049634;28;20481;-81
2021/12/18 00:39:18;;;;;;;67.78;29.50;;;1.80;99.90;;;;;;1049669;28;20048;-78
2021/12/18 00:39:56;;;;;;;76.38;29.58;;;1.80;99.90;;;;;;1053398;28;20055;-81
2021/12/18 00:40:31;;;;;;;84.32;31.77;;;1.80;99.90;;;;;;1049149;28;20045;-78
2021/12/18 00:42:00;;;;;;;75.18;30.40;;;1.80;99.90;;;;;;1057344;27;20046;-77
2021/12/18 00:43:21;;;;;;;71.70;29.92;;;1.90;99.90;;;;;;1062443;27;20067;-77
2021/12/18 00:44:03;;;;;;;79.00;30.50;;;1.80;99.90;;;;;;1062163;27;20045;-82
2021/12/18 00:44:37;;;;;;;68.88;28.77;;;1.80;99.90;;;;;;1057627;28;20563;-79
2021/12/18 00:45:14;;;;;;;69.70;29.25;;;1.90;99.90;;;;;;1056749;28;20040;-80
2021/12/18 00:45:46;;;;;;;73.75;30.00;;;1.80;99.90;;;;;;1055646;28;20050;-78
2021/12/18 00:46:18;;;;;;;74.35;29.75;;;1.80;99.90;;;;;;1058434;27;20039;-80
2021/12/18 00:46:50;;;;;;;83.90;31.83;;;1.80;99.90;;;;;;1056657;28;20074;-78
2021/12/18 00:47:22;;;;;;;77.05;30.77;;;1.80;99.90;;;;;;1052660;28;20081;-79
2021/12/18 00:47:54;;;;;;;79.90;32.25;;;1.80;99.90;;;;;;1048921;28;20040;-78
2021/12/18 00:48:27;;;;;;;74.43;30.85;;;1.80;99.90;;;;;;1053392;28;20470;-80
2021/12/18 00:48:59;;;;;;;81.38;31.65;;;1.80;99.90;;;;;;1052464;28;20040;-78
2021/12/18 00:49:31;;;;;;;76.57;30.63;;;1.80;99.90;;;;;;1053427;28;20040;-78
2021/12/18 00:50:06;;;;;;;74.95;30.02;;;1.80;99.90;;;;;;1053545;28;20050;-80
2021/12/18 00:50:38;;;;;;;71.60;30.65;;;1.80;99.90;;;;;;1053775;28;20145;-81
2021/12/18 00:51:10;;;;;;;68.95;28.90;;;1.80;99.90;;;;;;1052531;28;20496;-78
2021/12/18 00:51:42;;;;;;;73.53;29.85;;;1.70;99.90;;;;;;1053851;28;20113;-81
2021/12/18 00:52:14;;;;;;;76.40;30.23;;;1.70;99.90;;;;;;1056371;27;20043;-78
2021/12/18 00:52:47;;;;;;;76.03;30.88;;;1.70;99.90;;;;;;1056594;28;20056;-79
2021/12/18 00:53:19;;;;;;;77.55;30.40;;;1.70;99.90;;;;;;1052847;28;20119;-80
2021/12/18 00:53:51;;;;;;;74.68;29.38;;;1.70;99.90;;;;;;1053553;28;20789;-80
2021/12/18 00:54:24;;;;;;;71.03;30.08;;;1.70;99.90;;;;;;1057339;27;20134;-79
2021/12/18 00:54:55;;;;;;;69.63;28.77;;;1.70;99.90;;;;;;1053412;28;20130;-75
2021/12/18 00:55:27;;;;;;;78.00;30.40;;;1.70;99.90;;;;;;1052725;28;20051;-80
2021/12/18 00:55:59;;;;;;;76.75;29.40;;;1.70;99.90;;;;;;1052603;28;20054;-80
2021/12/18 00:56:32;;;;;;;77.47;30.30;;;1.70;99.90;;;;;;1052140;28;20545;-84
2021/12/18 00:57:05;;;;;;;75.50;30.92;;;1.70;99.90;;;;;;1054396;28;20522;-79
2021/12/18 00:57:37;;;;;;;77.88;30.48;;;1.70;99.90;;;;;;1055703;28;20423;-78
2021/12/18 00:58:09;;;;;;;74.53;29.55;;;1.70;99.90;;;;;;1053405;28;20129;-79
2021/12/18 00:58:41;;;;;;;71.93;29.48;;;1.60;99.90;;;;;;1052679;28;20134;-79
2021/12/18 00:59:13;;;;;;;73.03;30.00;;;1.60;99.90;;;;;;1049289;28;20048;-80
2021/12/18 00:59:48;;;;;;;74.90;29.65;;;1.60;99.90;;;;;;1053340;28;20071;-78
2021/12/18 01:00:24;;;;;;;74.57;29.77;;;1.60;99.90;;;;;;1052671;28;20044;-80
2021/12/18 01:00:56;;;;;;;70.22;30.42;;;1.60;99.90;;;;;;1053519;27;20118;-77
2021/12/18 01:01:28;;;;;;;75.65;30.35;;;1.60;99.90;;;;;;1056551;27;20055;-79
2021/12/18 01:02:00;;;;;;;70.60;28.98;;;1.60;99.90;;;;;;1057559;27;20047;-80
2021/12/18 01:02:32;;;;;;;69.53;29.52;;;1.50;99.90;;;;;;1056823;28;20079;-78
2021/12/18 01:03:14;;;;;;;72.90;29.75;;;1.50;99.90;;;;;;1056769;28;20054;-80
2021/12/18 01:03:47;;;;;;;74.07;29.13;;;1.50;99.90;;;;;;1052642;28;20040;-80
2021/12/18 01:04:19;;;;;;;66.05;29.02;;;1.50;99.90;;;;;;1054646;28;20171;-76
2021/12/18 01:04:51;;;;;;;73.85;29.65;;;1.50;99.90;;;;;;1058473;27;20127;-78
2021/12/18 01:05:24;;;;;;;75.30;29.65;;;1.40;99.90;;;;;;1056837;28;20076;-80
2021/12/18 01:05:56;;;;;;;70.13;29.85;;;1.40;99.90;;;;;;1053487;28;20044;-79
2021/12/18 01:06:28;;;;;;;69.97;29.02;;;1.40;99.90;;;;;;1052611;28;20048;-78
2021/12/18 01:07:00;;;;;;;71.32;29.88;;;1.40;99.90;;;;;;1048600;28;20044;-80
2021/12/18 01:07:33;;;;;;;71.03;29.73;;;1.40;99.90;;;;;;1044711;28;20049;-78
2021/12/18 01:08:05;;;;;;;78.68;29.75;;;1.40;99.90;;;;;;1044904;28;20052;-78
2021/12/18 01:08:37;;;;;;;73.70;30.58;;;1.40;99.90;;;;;;1044946;28;20049;-78
2021/12/18 01:09:09;;;;;;;69.43;28.40;;;1.40;99.90;;;;;;1049168;28;20048;-79
2021/12/18 01:09:57;;;;;;;74.05;30.60;;;1.40;99.90;;;;;;1049198;28;20045;-80
2021/12/18 01:11:43;;;;;;;76.50;30.17;;;1.40;99.90;;;;;;1059749;27;20054;-78
2021/12/18 01:12:15;;;;;;;82.35;29.75;;;1.30;99.90;;;;;;1058947;27;20053;-79
2021/12/18 01:12:50;;;;;;;74.13;29.77;;;1.40;99.90;;;;;;1056971;28;20525;-79
2021/12/18 01:13:27;;;;;;;84.93;32.92;;;1.40;99.90;;;;;;1052590;28;20075;-78
2021/12/18 01:15:22;;;;;;;72.13;28.13;;;1.40;99.90;;;;;;1059705;27;20047;-79
2021/12/18 01:15:57;;;;;;;74.90;28.50;;;1.40;99.90;;;;;;1056565;27;20044;-80
2021/12/18 01:16:40;;;;;;;74.05;28.52;;;1.40;99.90;;;;;;1056960;28;20176;-78
2021/12/18 01:22:48;;;;;;;74.43;27.85;;;1.40;99.90;;;;;;1065645;27;20541;-78
2021/12/18 01:23:22;;;;;;;92.90;31.85;;;1.40;99.90;;;;;;1060913;27;20176;-78
2021/12/18 01:23:54;;;;;;;98.15;32.38;;;1.40;99.90;;;;;;1056879;28;20048;-78
2021/12/18 01:24:26;;;;;;;82.00;31.48;;;1.40;99.90;;;;;;1056289;28;20054;-78
2021/12/18 01:24:58;;;;;;;76.28;29.30;;;1.40;99.90;;;;;;1057072;28;20052;-77
2021/12/18 01:25:30;;;;;;;93.90;32.95;;;1.40;99.90;;;;;;1056021;28;20050;-78
2021/12/18 01:26:03;;;;;;;99.32;34.13;;;1.50;99.90;;;;;;1052324;28;20044;-78
2021/12/18 01:26:35;;;;;;;99.78;35.40;;;1.50;99.90;;;;;;1053445;28;20405;-78
2021/12/18 01:27:07;;;;;;;105.57;35.17;;;1.50;99.90;;;;;;1053245;28;20040;-79
2021/12/18 01:27:39;;;;;;;101.05;34.63;;;1.60;99.90;;;;;;1053233;28;20515;-77
2021/12/18 01:28:11;;;;;;;104.40;34.97;;;1.60;99.90;;;;;;1052382;28;20081;-77
2021/12/18 01:28:43;;;;;;;106.47;36.40;;;1.60;99.90;;;;;;1048960;28;20044;-79
2021/12/18 01:29:15;;;;;;;103.97;36.08;;;1.60;99.90;;;;;;1052972;28;20074;-77
2021/12/18 01:29:47;;;;;;;111.70;36.97;;;1.60;99.90;;;;;;1053146;28;20496;-78
2021/12/18 01:30:19;;;;;;;107.13;36.83;;;1.70;99.90;;;;;;1050608;28;20055;-78
2021/12/18 01:30:52;;;;;;;112.25;37.20;;;1.70;99.90;;;;;;1052467;28;20051;-78
2021/12/18 01:31:24;;;;;;;116.72;37.33;;;1.70;99.90;;;;;;1052546;28;20048;-77
2021/12/18 01:31:56;;;;;;;113.28;36.55;;;1.70;99.90;;;;;;1052576;28;20040;-77
2021/12/18 01:32:29;;;;;;;116.72;36.45;;;1.80;99.90;;;;;;1053231;28;20054;-77
2021/12/18 01:33:01;;;;;;;118.57;38.58;;;1.80;99.90;;;;;;1053257;28;20047;-77
2021/12/18 01:33:33;;;;;;;118.88;38.33;;;1.90;99.90;;;;;;1056726;28;20069;-77
2021/12/18 01:34:05;;;;;;;120.80;37.30;;;1.90;99.90;;;;;;1052589;28;20547;-78
2021/12/18 01:34:37;;;;;;;118.20;38.40;;;1.90;99.90;;;;;;1049199;28;20044;-77
2021/12/18 01:35:09;;;;;;;115.22;37.67;;;2.00;99.90;;;;;;1052468;28;20181;-78
2021/12/18 01:35:45;;;;;;;116.55;36.00;;;2.00;99.90;;;;;;1048272;28;20044;-78
2021/12/18 01:36:17;;;;;;;121.20;39.22;;;2.00;99.90;;;;;;1049561;28;20381;-78
2021/12/18 01:36:48;;;;;;;127.22;40.47;;;2.00;99.90;;;;;;1051589;28;20044;-76
2021/12/18 01:37:21;;;;;;;133.48;41.35;;;2.10;99.90;;;;;;1049396;28;20052;-77
2021/12/18 01:37:53;;;;;;;131.25;40.35;;;2.10;99.90;;;;;;1051003;28;20055;-78
2021/12/18 01:38:25;;;;;;;142.48;42.35;;;2.10;99.90;;;;;;1052944;28;20526;-77
2021/12/18 01:38:57;;;;;;;139.82;42.28;;;2.20;99.90;;;;;;1048546;28;20127;-77
2021/12/18 01:39:29;;;;;;;130.38;41.88;;;2.20;99.90;;;;;;1045104;28;20076;-77
2021/12/18 01:40:02;;;;;;;127.13;40.05;;;2.30;99.90;;;;;;1045342;28;20048;-79
2021/12/18 01:40:34;;;;;;;138.85;40.67;;;2.30;99.90;;;;;;1045283;28;20045;-79
2021/12/18 01:41:06;;;;;;;138.80;42.17;;;2.40;99.90;;;;;;1045293;28;20585;-78
2021/12/18 01:45:28;;;;;;;151.48;41.33;;;2.80;99.90;;;;;;1066055;27;20051;-78
2021/12/18 01:51:11;;;;;;;159.20;45.67;;;2.90;99.90;;;;;;1066115;27;20051;-78
2021/12/18 01:51:58;;;;;;;155.95;43.33;;;3.20;99.90;;;;;;1064115;27;20046;-76
2021/12/18 01:52:32;;;;;;;157.70;42.08;;;3.30;99.90;;;;;;1064420;27;20080;-78
2021/12/18 01:53:06;;;;;;;162.55;42.35;;;3.30;99.90;;;;;;1065330;27;20398;-78
2021/12/18 01:53:38;;;;;;;143.98;42.10;;;3.40;99.90;;;;;;1063431;27;20043;-78
2021/12/18 01:54:12;;;;;;;152.90;44.58;;;3.40;99.90;;;;;;1056529;28;20096;-78
2021/12/18 01:54:46;;;;;;;166.73;44.47;;;3.40;99.90;;;;;;1052516;28;20442;-78
2021/12/18 01:55:17;;;;;;;153.43;43.83;;;3.40;99.90;;;;;;1052679;28;20622;-80
2021/12/18 01:55:51;;;;;;;165.52;45.38;;;3.40;99.90;;;;;;1053435;28;20048;-79
2021/12/18 01:56:25;;;;;;;154.35;45.35;;;3.40;99.90;;;;;;1053500;28;20050;-81
2021/12/18 01:56:59;;;;;;;151.38;44.20;;;3.40;99.90;;;;;;1052431;28;20054;-76
2021/12/18 01:57:32;;;;;;;160.85;44.63;;;3.40;99.90;;;;;;1052459;28;20442;-78
2021/12/18 01:58:05;;;;;;;150.18;45.45;;;3.40;99.90;;;;;;1053760;28;20047;-77
2021/12/18 01:58:37;;;;;;;159.48;43.30;;;3.40;99.90;;;;;;1053753;28;20052;-78
2021/12/18 01:59:09;;;;;;;149.25;43.85;;;3.40;99.90;;;;;;1051378;28;20451;-77
2021/12/18 01:59:47;;;;;;;146.63;44.33;;;3.40;99.90;;;;;;1049228;28;20048;-78
2021/12/18 02:00:23;;;;;;;150.60;43.50;;;3.50;99.90;;;;;;1050766;28;20058;-79
2021/12/18 02:00:57;;;;;;;153.65;43.40;;;3.50;99.90;;;;;;1054497;28;20401;-77
2021/12/18 02:01:29;;;;;;;162.32;44.08;;;3.50;99.90;;;;;;1052296;28;20048;-78
2021/12/18 02:02:02;;;;;;;145.43;43.67;;;3.50;99.90;;;;;;1053810;28;20512;-78
2021/12/18 02:02:34;;;;;;;157.98;44.72;;;3.60;99.90;;;;;;1056315;28;20043;-78
2021/12/18 02:03:07;;;;;;;153.10;44.92;;;3.60;99.90;;;;;;1052451;28;20040;-76
2021/12/18 02:03:39;;;;;;;171.32;45.80;;;3.70;99.90;;;;;;1052420;28;20044;-78
2021/12/18 02:04:11;;;;;;;168.90;44.65;;;3.70;99.90;;;;;;1048158;28;20048;-78
2021/12/18 02:04:43;;;;;;;148.77;44.17;;;3.70;99.90;;;;;;1049012;28;20612;-77
2021/12/18 02:05:15;;;;;;;155.32;44.92;;;3.80;99.90;;;;;;1048361;28;20051;-79
2021/12/18 02:05:48;;;;;;;153.63;46.33;;;3.80;99.90;;;;;;1048827;28;20044;-77
2021/12/18 02:06:21;;;;;;;149.95;45.20;;;3.80;99.90;;;;;;1048357;28;20503;-78
2021/12/18 02:06:53;;;;;;;159.18;45.38;;;3.90;99.90;;;;;;1050622;28;20044;-77
2021/12/18 02:07:25;;;;;;;159.23;45.13;;;3.90;99.90;;;;;;1052384;28;20040;-78
2021/12/18 02:07:58;;;;;;;150.43;45.38;;;3.90;99.90;;;;;;1056350;28;20040;-77
2021/12/18 02:08:33;;;;;;;155.00;45.88;;;3.90;99.90;;;;;;1052276;28;20040;-79
2021/12/18 02:09:05;;;;;;;154.15;44.13;;;3.90;99.90;;;;;;1052454;28;20051;-78
2021/12/18 02:10:02;;;;;;;149.63;43.67;;;3.90;99.90;;;;;;1048245;28;20056;-78
2021/12/18 02:11:36;;;;;;;153.40;42.70;;;4.00;99.90;;;;;;1048379;28;20052;-78
2021/12/18 02:11:38;;;;;;;141.32;39.58;;;4.00;99.90;;;;;;1031184;28;21302;-81
2021/12/18 02:12:11;;;;;;;148.60;42.42;;;4.00;99.90;;;;;;1048765;28;20045;-78
2021/12/18 02:13:24;;;;;;;146.82;41.88;;;4.00;99.90;;;;;;1047397;28;20631;-77
2021/12/18 02:20:10;;;;;;;131.52;40.35;;;4.10;99.90;;;;;;1052707;28;20044;-78
2021/12/18 02:20:47;;;;;;;141.02;40.05;;;4.10;99.90;;;;;;1052438;28;20044;-80
2021/12/18 02:21:26;;;;;;;149.13;40.67;;;4.10;99.90;;;;;;1052439;28;20044;-78
2021/12/18 02:22:00;;;;;;;140.75;40.15;;;4.10;99.90;;;;;;1052296;28;20054;-78
2021/12/18 02:22:32;;;;;;;137.80;41.90;;;4.10;99.90;;;;;;1052336;28;20557;-79
2021/12/18 02:23:05;;;;;;;137.13;42.95;;;4.10;99.90;;;;;;1048704;28;20051;-82
2021/12/18 02:23:38;;;;;;;137.10;41.67;;;4.10;99.90;;;;;;1048888;28;20045;-79
2021/12/18 02:24:11;;;;;;;125.40;40.35;;;4.10;99.90;;;;;;1051261;28;20931;-78
2021/12/18 02:24:43;;;;;;;141.95;44.28;;;4.10;99.90;;;;;;1053895;28;20102;-77
2021/12/18 02:25:15;;;;;;;144.75;43.33;;;4.10;99.90;;;;;;1052204;28;20454;-79
2021/12/18 02:25:47;;;;;;;146.10;43.33;;;4.10;99.90;;;;;;1052446;28;20389;-80
2021/12/18 02:26:21;;;;;;;131.88;39.92;;;4.10;99.90;;;;;;1048794;28;20048;-78
2021/12/18 02:26:53;;;;;;;132.65;41.55;;;4.20;99.90;;;;;;1053336;28;20051;-79
2021/12/18 02:27:25;;;;;;;144.68;42.38;;;4.20;99.90;;;;;;1052621;28;20078;-79
2021/12/18 02:27:57;;;;;;;149.23;44.13;;;4.20;99.90;;;;;;1051131;28;20044;-79
2021/12/18 02:28:29;;;;;;;141.57;42.95;;;4.30;99.90;;;;;;1048076;28;20048;-80
2021/12/18 02:29:03;;;;;;;146.25;41.55;;;4.30;99.90;;;;;;1048938;28;20510;-79
2021/12/18 02:29:38;;;;;;;142.80;42.97;;;4.40;99.90;;;;;;1048173;28;20044;-81
2021/12/18 02:30:11;;;;;;;134.98;41.72;;;4.40;99.90;;;;;;1048175;28;20049;-78
2021/12/18 02:30:45;;;;;;;150.63;43.33;;;4.40;99.90;;;;;;1049608;28;20538;-79
2021/12/18 02:31:17;;;;;;;140.13;42.28;;;4.40;99.90;;;;;;1053596;28;20055;-79
2021/12/18 02:31:49;;;;;;;127.22;41.20;;;4.40;99.90;;;;;;1052182;28;20055;-81
2021/12/18 02:32:22;;;;;;;145.32;42.55;;;4.40;99.90;;;;;;1048243;28;20420;-80
2021/12/18 02:32:54;;;;;;;138.70;42.45;;;4.40;99.90;;;;;;1048040;28;20040;-79
2021/12/18 02:33:27;;;;;;;127.18;40.72;;;4.40;99.90;;;;;;1047983;28;20075;-78
2021/12/18 02:33:59;;;;;;;131.85;41.35;;;4.40;99.90;;;;;;1048689;28;20048;-79
2021/12/18 02:34:32;;;;;;;129.45;42.58;;;4.40;99.90;;;;;;1048089;28;20044;-80
2021/12/18 02:35:05;;;;;;;134.38;40.83;;;4.40;99.90;;;;;;1048361;28;20040;-79
2021/12/18 02:35:45;;;;;;;131.43;42.05;;;4.50;99.90;;;;;;1044129;28;20052;-79
2021/12/18 02:36:25;;;;;;;131.18;42.65;;;4.50;99.90;;;;;;1045959;28;20456;-80
2021/12/18 02:37:04;;;;;;;129.88;41.70;;;4.50;99.90;;;;;;1046904;28;20086;-80
2021/12/18 02:37:40;;;;;;;137.38;40.90;;;4.50;99.90;;;;;;1047835;28;20672;-80
2021/12/18 02:39:43;;;;;;;117.15;38.95;;;4.50;99.90;;;;;;1054340;28;20040;-81
2021/12/18 02:41:36;;;;;;;108.85;36.25;;;4.50;99.90;;;;;;1056462;28;20048;-79
2021/12/18 02:42:11;;;;;;;131.65;38.92;;;4.50;99.90;;;;;;1054882;28;20043;-85
2021/12/18 02:42:43;;;;;;;115.32;38.33;;;4.50;99.90;;;;;;1052213;28;20052;-78
2021/12/18 02:43:15;;;;;;;132.88;40.35;;;4.50;99.90;;;;;;1048005;28;20041;-81
2021/12/18 02:43:46;;;;;;;121.47;40.42;;;4.50;99.90;;;;;;1048993;28;20040;-79
2021/12/18 02:44:18;;;;;;;131.13;40.95;;;4.50;99.90;;;;;;1052295;28;20047;-79
2021/12/18 02:44:52;;;;;;;120.05;40.70;;;4.50;99.90;;;;;;1048603;28;20047;-81
2021/12/18 02:45:24;;;;;;;117.85;40.50;;;4.50;99.90;;;;;;1053060;28;20044;-80
2021/12/18 02:45:59;;;;;;;114.78;38.83;;;4.50;99.90;;;;;;1052245;28;20044;-79
2021/12/18 02:46:32;;;;;;;124.15;41.10;;;4.50;99.90;;;;;;1053581;28;20052;-81
2021/12/18 02:47:04;;;;;;;118.55;39.65;;;4.50;99.90;;;;;;1052320;28;20052;-79
2021/12/18 02:47:36;;;;;;;128.80;41.90;;;4.50;99.90;;;;;;1053527;28;20048;-81
2021/12/18 02:48:08;;;;;;;111.45;39.55;;;4.50;99.90;;;;;;1052183;28;20044;-81
2021/12/18 02:48:41;;;;;;;128.60;39.92;;;4.50;99.90;;;;;;1053197;28;20119;-82
2021/12/18 02:49:15;;;;;;;119.00;40.63;;;4.50;99.90;;;;;;1052325;28;20503;-82
2021/12/18 02:49:51;;;;;;;121.13;40.17;;;4.50;99.90;;;;;;1053504;28;20062;-80
2021/12/18 02:50:23;;;;;;;121.18;39.15;;;4.50;99.90;;;;;;1051118;28;20161;-80
2021/12/18 02:50:57;;;;;;;119.05;39.15;;;4.40;99.90;;;;;;1045752;28;20055;-81
2021/12/18 02:51:29;;;;;;;113.18;39.45;;;4.50;99.90;;;;;;1052224;28;20054;-78
2021/12/18 02:52:02;;;;;;;125.65;39.92;;;4.50;99.90;;;;;;1048248;28;20599;-79
2021/12/18 02:52:33;;;;;;;119.18;41.05;;;4.50;99.90;;;;;;1049172;28;20420;-79
2021/12/18 02:53:07;;;;;;;120.63;40.65;;;4.50;99.90;;;;;;1048048;28;20045;-79
2021/12/18 02:53:44;;;;;;;117.25;38.88;;;4.50;99.90;;;;;;1045021;28;20041;-79
2021/12/18 02:54:16;;;;;;;125.20;40.47;;;4.50;99.90;;;;;;1044015;28;20053;-81
2021/12/18 02:54:48;;;;;;;114.75;39.70;;;4.50;99.90;;;;;;1041214;28;20041;-81
2021/12/18 02:55:20;;;;;;;119.93;39.28;;;4.50;99.90;;;;;;1041292;28;20041;-80
2021/12/18 02:56:05;;;;;;;112.43;37.65;;;4.50;99.90;;;;;;1044604;28;20047;-82
2021/12/18 02:56:37;;;;;;;119.15;39.22;;;4.50;99.90;;;;;;1048033;28;20523;-79
2021/12/18 02:57:10;;;;;;;118.60;39.00;;;4.40;99.90;;;;;;1047671;28;20412;-80
2021/12/18 02:57:42;;;;;;;116.15;38.95;;;4.50;99.90;;;;;;1047983;28;20040;-81
2021/12/18 02:58:14;;;;;;;121.45;39.75;;;4.50;99.90;;;;;;1048104;28;20041;-79
2021/12/18 02:58:47;;;;;;;114.35;39.00;;;4.50;99.90;;;;;;1048332;28;20131;-79
2021/12/18 02:59:19;;;;;;;110.72;37.15;;;4.50;99.90;;;;;;1043826;28;20072;-80
2021/12/18 02:59:54;;;;;;;110.22;37.28;;;4.50;99.90;;;;;;1039794;28;20413;-79
2021/12/18 03:00:27;;;;;;;114.18;39.10;;;4.40;99.90;;;;;;1041111;28;20522;-80
2021/12/18 03:01:00;;;;;;;111.05;38.90;;;4.40;99.90;;;;;;1043784;28;20048;-80
2021/12/18 03:01:33;;;;;;;113.13;38.50;;;4.40;99.90;;;;;;1048027;28;20040;-81
2021/12/18 03:02:05;;;;;;;115.72;38.17;;;4.40;99.90;;;;;;1045069;28;20041;-81
2021/12/18 03:02:42;;;;;;;101.05;37.85;;;4.40;99.90;;;;;;1048149;28;20041;-82
2021/12/18 03:03:15;;;;;;;111.93;39.20;;;4.40;99.90;;;;;;1045189;28;20045;-78
2021/12/18 03:03:50;;;;;;;102.40;37.90;;;4.40;99.90;;;;;;1046681;28;20186;-81
2021/12/18 03:04:28;;;;;;;107.15;38.95;;;4.50;99.90;;;;;;1044703;28;20061;-81
2021/12/18 03:05:06;;;;;;;113.55;38.20;;;4.50;99.90;;;;;;1049979;28;20123;-79
2021/12/18 03:05:46;;;;;;;108.47;38.13;;;4.50;99.90;;;;;;1052182;28;20044;-80
2021/12/18 03:06:29;;;;;;;111.57;38.97;;;4.60;99.90;;;;;;1048162;28;20051;-79
2021/12/18 03:07:04;;;;;;;110.00;38.80;;;4.60;99.90;;;;;;1052419;28;20067;-82
2021/12/18 03:07:36;;;;;;;112.63;38.45;;;4.60;99.90;;;;;;1052325;28;20048;-79
2021/12/18 03:08:16;;;;;;;104.18;37.80;;;4.60;99.90;;;;;;1054874;28;20679;-79
2021/12/18 03:23:45;;;;;;;108.75;35.42;;;4.50;99.90;;;;;;1052555;28;20051;-80
2021/12/18 03:24:31;;;;;;;94.18;36.47;;;4.50;99.90;;;;;;1052278;28;20048;-80
2021/12/18 03:25:09;;;;;;;109.00;36.88;;;4.50;99.90;;;;;;1047942;28;20510;-80
2021/12/18 03:25:41;;;;;;;96.00;35.28;;;4.50;99.90;;;;;;1043612;28;20045;-80
2021/12/18 03:26:14;;;;;;;100.72;37.13;;;4.50;99.90;;;;;;1047271;28;20048;-79
2021/12/18 03:26:46;;;;;;;100.35;37.05;;;4.50;99.90;;;;;;1045492;28;20055;-80
2021/12/18 03:27:18;;;;;;;94.47;36.33;;;4.50;99.90;;;;;;1044609;28;20140;-82
2021/12/18 03:27:51;;;;;;;105.57;37.22;;;4.50;99.90;;;;;;1043831;28;20053;-82
2021/12/18 03:28:24;;;;;;;102.43;37.83;;;4.50;99.90;;;;;;1044737;28;20055;-81
2021/12/18 03:28:55;;;;;;;103.93;37.20;;;4.50;99.90;;;;;;1045002;28;20421;-79
2021/12/18 03:29:27;;;;;;;93.90;36.25;;;4.50;99.90;;;;;;1043874;28;20045;-81
2021/12/18 03:29:59;;;;;;;102.53;37.63;;;4.50;99.90;;;;;;1044657;28;20114;-80
2021/12/18 03:30:33;;;;;;;107.30;37.53;;;4.50;99.90;;;;;;1048586;28;20048;-82
2021/12/18 03:31:05;;;;;;;97.35;37.53;;;4.50;99.90;;;;;;1047984;28;20423;-81
2021/12/18 03:31:37;;;;;;;98.45;36.92;;;4.50;99.90;;;;;;1048157;28;20040;-80
2021/12/18 03:32:09;;;;;;;97.35;38.50;;;4.50;99.90;;;;;;1048019;28;20044;-81
2021/12/18 03:32:41;;;;;;;96.65;37.38;;;4.50;99.90;;;;;;1047950;28;20512;-80
2021/12/18 03:33:13;;;;;;;101.70;36.85;;;4.50;99.90;;;;;;1048890;28;20048;-81
2021/12/18 03:33:45;;;;;;;97.10;35.97;;;4.40;99.90;;;;;;1047927;28;20672;-79